createdAt,value
2019-05-02T00:01:03.628Z,56.19
2019-05-02T00:06:09.311Z,55.74
2019-05-02T00:11:14.044Z,56.15
2019-05-02T00:16:20.244Z,56.33
2019-05-02T00:21:24.670Z,56.26
2019-05-02T00:26:28.938Z,56.32
2019-05-02T00:31:33.143Z,56.32
2019-05-02T00:36:37.264Z,56.27
2019-05-02T00:41:41.482Z,56.28
2019-05-02T00:46:45.739Z,56.16
2019-05-02T00:51:49.778Z,56.16
2019-05-02T00:56:55.149Z,56.22
2019-05-02T01:02:16.211Z,56.14
2019-05-02T01:07:25.026Z,56.57
2019-05-02T01:12:26.899Z,56.51
2019-05-02T01:17:32.298Z,56.25
2019-05-02T01:22:36.385Z,56.03
2019-05-02T01:27:45.954Z,56.55
2019-05-02T01:33:06.350Z,56.55
2019-05-02T01:38:32.294Z,56.41
2019-05-02T01:43:37.257Z,56.49
2019-05-02T01:48:45.602Z,56.57
2019-05-02T01:53:47.591Z,56.53
2019-05-02T01:58:52.982Z,56.53
2019-05-02T02:03:57.690Z,56.59
2019-05-02T02:09:03.448Z,56.52
2019-05-02T02:14:12.914Z,56.52
2019-05-02T02:19:22.490Z,56.73
2019-05-02T02:24:30.507Z,56.73
2019-05-02T02:29:38.953Z,56.64
2019-05-02T02:34:40.575Z,56.82
2019-05-02T02:39:48.704Z,56.82
2019-05-02T02:45:00.766Z,57.01
2019-05-02T02:50:05.540Z,56.88
2019-05-02T02:55:09.999Z,56.88
2019-05-02T03:00:14.462Z,56.94
2019-05-02T03:05:25.904Z,56.94
2019-05-02T03:10:24.640Z,56.89
2019-05-02T03:15:30.869Z,56.89
2019-05-02T03:20:40.456Z,57.05
2019-05-02T03:25:50.368Z,57.05
2019-05-02T03:30:46.723Z,57.51
2019-05-02T03:35:50.989Z,57.37
2019-05-02T03:40:55.155Z,57.19
2019-05-02T03:45:59.390Z,57.19
2019-05-02T03:51:05.176Z,57.27
2019-05-02T03:56:11.953Z,57.27
2019-05-02T04:01:15.531Z,57.36
2019-05-02T04:06:20.946Z,57.27
2019-05-02T04:11:32.836Z,57.69
2019-05-02T04:16:32.657Z,57.53
2019-05-02T04:21:37.034Z,57.89
2019-05-02T04:26:52.770Z,58.00
2019-05-02T04:31:47.000Z,58.00
2019-05-02T04:37:00.237Z,58.34
2019-05-02T04:41:58.633Z,58.61
2019-05-02T04:47:10.984Z,58.50
2019-05-02T04:52:12.462Z,58.18
2019-05-02T04:57:14.520Z,58.18
2019-05-02T05:02:21.201Z,58.48
2019-05-02T05:07:24.617Z,58.48
2019-05-02T05:12:32.603Z,58.83
2019-05-02T05:17:34.352Z,58.90
2019-05-02T05:22:44.373Z,58.90
2019-05-02T05:27:44.094Z,58.74
2019-05-02T05:32:48.123Z,58.74
2019-05-02T05:37:53.349Z,58.97
2019-05-02T05:42:57.524Z,58.76
2019-05-02T05:48:01.541Z,58.76
2019-05-02T05:53:07.507Z,58.84
2019-05-02T05:58:15.478Z,58.86
2019-05-02T06:03:18.861Z,58.89
2019-05-02T06:08:22.884Z,58.89
2019-05-02T06:13:27.068Z,59.50
2019-05-02T06:18:31.273Z,59.22
2019-05-02T06:23:36.425Z,59.34
2019-05-02T06:28:41.817Z,59.19
2019-05-02T06:33:46.879Z,59.25
2019-05-02T06:38:52.321Z,59.41
2019-05-02T06:43:56.871Z,59.55
2019-05-02T06:49:01.026Z,59.50
2019-05-02T06:54:05.354Z,58.25
2019-05-02T06:59:13.192Z,59.25
2019-05-02T07:04:17.344Z,58.78
2019-05-02T07:09:21.819Z,59.75
2019-05-02T07:14:26.545Z,60.18
2019-05-02T07:19:36.460Z,57.42
2019-05-02T07:24:41.136Z,56.46
2019-05-02T07:29:45.198Z,56.46
2019-05-02T07:34:49.521Z,57.17
2019-05-02T07:39:53.691Z,56.85
2019-05-02T07:44:57.730Z,57.22
2019-05-02T07:50:05.336Z,56.76
2019-05-02T07:55:10.028Z,57.45
2019-05-02T08:00:16.350Z,57.10
2019-05-02T08:05:23.816Z,57.10
2019-05-02T08:10:26.553Z,57.23
2019-05-02T08:15:30.628Z,57.41
2019-05-02T08:20:34.813Z,55.10
2019-05-02T08:25:41.574Z,58.27
2019-05-02T08:30:50.715Z,56.29
2019-05-02T08:35:54.875Z,55.73
2019-05-02T08:40:58.938Z,55.70
2019-05-02T08:46:03.049Z,56.46
2019-05-02T08:51:07.095Z,56.08
2019-05-02T08:56:11.118Z,55.98
2019-05-02T09:01:15.512Z,56.67
2019-05-02T09:06:22.583Z,56.29
2019-05-02T09:11:26.165Z,56.50
2019-05-02T09:16:32.637Z,56.50
2019-05-02T09:21:36.170Z,57.39
2019-05-02T09:26:42.433Z,57.65
2019-05-02T09:31:46.311Z,57.46
2019-05-02T09:36:50.415Z,57.46
2019-05-02T09:41:54.577Z,57.26
2019-05-02T09:46:58.827Z,57.50
2019-05-02T09:52:03.419Z,57.50
2019-05-02T09:57:07.584Z,57.11
2019-05-02T10:02:12.588Z,56.35
2019-05-02T10:07:16.757Z,56.47
2019-05-02T10:12:22.886Z,56.33
2019-05-02T10:17:29.641Z,55.46
2019-05-02T10:22:39.223Z,56.01
2019-05-02T10:27:43.880Z,56.01
2019-05-02T10:32:47.226Z,55.84
2019-05-02T10:37:52.150Z,54.55
2019-05-02T10:42:56.401Z,55.01
2019-05-02T10:48:02.251Z,54.93
2019-05-02T10:53:12.059Z,54.22
2019-05-02T10:58:12.516Z,54.74
2019-05-02T11:03:28.619Z,54.37
2019-05-02T11:08:36.824Z,54.37
2019-05-02T11:13:48.440Z,54.30
2019-05-02T11:19:04.751Z,54.40
2019-05-02T11:24:11.498Z,54.42
2019-05-02T11:29:14.690Z,54.42
2019-05-02T11:34:18.839Z,54.13
2019-05-02T11:39:28.656Z,53.97
2019-05-02T11:44:29.510Z,55.14
2019-05-02T11:49:33.554Z,53.77
2019-05-02T11:54:39.177Z,53.21
2019-05-02T11:59:43.380Z,53.82
2019-05-02T12:04:51.785Z,52.53
2019-05-02T12:09:57.056Z,52.82
2019-05-02T12:14:59.097Z,52.82
2019-05-02T12:20:03.417Z,52.83
2019-05-02T12:25:07.613Z,53.34
2019-05-02T12:30:14.246Z,52.52
2019-05-02T12:35:18.442Z,52.42
2019-05-02T12:40:22.885Z,53.18
2019-05-02T12:45:31.090Z,52.44
2019-05-02T12:50:35.445Z,52.44
2019-05-02T12:55:41.949Z,52.51
2019-05-02T13:00:47.266Z,52.34
2019-05-02T13:05:52.139Z,53.44
2019-05-02T13:11:07.521Z,53.18
2019-05-02T13:16:12.307Z,53.18
2019-05-02T13:21:23.360Z,54.43
2019-05-02T13:26:27.398Z,54.78
2019-05-02T13:31:47.353Z,54.78
2019-05-02T13:36:51.957Z,54.93
2019-05-02T13:41:56.134Z,54.78
2019-05-02T13:47:05.307Z,55.14
2019-05-02T13:52:11.692Z,54.72
2019-05-02T13:57:15.415Z,55.46
2019-05-02T14:02:37.512Z,54.99
2019-05-02T14:07:43.669Z,55.04
2019-05-02T14:12:50.435Z,55.31
2019-05-02T14:17:54.521Z,55.09
2019-05-02T14:22:58.733Z,55.09
2019-05-02T14:28:03.174Z,55.47
2019-05-02T14:33:13.466Z,55.47
2019-05-02T14:38:17.518Z,55.51
2019-05-02T14:43:46.230Z,56.09
2019-05-02T14:48:46.887Z,55.99
2019-05-02T14:53:52.581Z,56.15
2019-05-02T14:58:56.863Z,56.15
2019-05-02T15:04:06.453Z,56.65
2019-05-02T15:09:09.071Z,56.65
2019-05-02T15:14:18.046Z,56.83
2019-05-02T15:19:18.978Z,56.95
2019-05-02T15:24:23.162Z,56.79
2019-05-02T15:29:27.539Z,57.27
2019-05-02T15:34:46.282Z,57.05
2019-05-02T15:44:48.821Z,57.33
2019-05-02T15:49:52.936Z,57.04
2019-05-02T15:55:03.529Z,57.04
2019-05-02T16:00:03.841Z,56.92
2019-05-02T16:05:08.564Z,56.87
2019-05-02T16:10:13.589Z,57.11
2019-05-02T16:15:21.478Z,57.27
2019-05-02T16:20:32.367Z,58.23
2019-05-02T16:25:36.523Z,58.83
2019-05-02T16:30:47.332Z,58.09
2019-05-02T16:35:51.510Z,57.10
2019-05-02T16:40:54.645Z,57.10
2019-05-02T16:45:59.245Z,56.55
2019-05-02T16:51:08.153Z,55.33
2019-05-02T16:56:11.870Z,55.33
2019-05-02T17:01:24.631Z,54.30
2019-05-02T17:06:25.858Z,52.80
2019-05-02T17:11:35.718Z,54.46
2019-05-02T17:16:37.883Z,51.32
2019-05-02T17:21:52.991Z,51.73
2019-05-02T17:26:47.768Z,51.70
2019-05-02T17:31:55.512Z,51.06
2019-05-02T17:36:59.180Z,51.31
2019-05-02T17:42:03.462Z,51.24
2019-05-02T17:47:09.303Z,51.82
2019-05-02T17:52:35.288Z,51.82
2019-05-02T17:57:39.357Z,51.25
2019-05-02T18:02:46.978Z,51.39
2019-05-02T18:07:49.198Z,51.39
2019-05-02T18:12:56.646Z,51.57
2019-05-02T18:17:59.870Z,51.57
2019-05-02T18:23:06.079Z,50.95
2019-05-02T18:28:14.018Z,51.16
2019-05-02T18:33:16.042Z,51.06
2019-05-02T18:38:20.928Z,51.06
2019-05-02T18:43:25.454Z,52.24
2019-05-02T18:48:29.514Z,52.72
2019-05-02T18:53:33.609Z,52.72
2019-05-02T18:58:41.239Z,52.98
2019-05-02T19:03:46.979Z,53.33
2019-05-02T19:08:52.279Z,53.18
2019-05-02T19:13:56.613Z,53.37
2019-05-02T19:19:01.731Z,53.45
2019-05-02T19:24:06.184Z,53.42
2019-05-02T19:29:24.821Z,53.42
2019-05-02T19:34:29.006Z,53.88
2019-05-02T19:39:38.963Z,53.74
2019-05-02T19:44:42.064Z,53.94
2019-05-02T19:49:47.303Z,54.06
2019-05-02T19:54:52.134Z,54.26
2019-05-02T19:59:57.096Z,54.26
2019-05-02T20:05:02.856Z,54.14
2019-05-02T20:10:07.536Z,54.59
2019-05-02T20:15:17.070Z,54.39
2019-05-02T20:20:40.844Z,54.39
2019-05-02T20:25:46.132Z,54.87
2019-05-02T20:30:52.511Z,54.87
2019-05-02T20:35:56.156Z,54.10
2019-05-02T20:41:00.297Z,54.56
2019-05-02T20:46:04.547Z,54.59
2019-05-02T20:51:08.747Z,54.96
2019-05-02T20:56:12.839Z,54.87
2019-05-02T21:01:17.006Z,54.88
2019-05-02T21:06:38.634Z,54.81
2019-05-02T21:11:34.904Z,54.81
2019-05-02T21:16:38.990Z,55.21
2019-05-02T21:21:43.355Z,55.21
2019-05-02T21:26:47.454Z,55.64
2019-05-02T21:31:52.015Z,55.27
2019-05-02T21:36:56.119Z,55.27
2019-05-02T21:42:02.192Z,55.29
2019-05-02T21:47:06.100Z,55.57
2019-05-02T21:52:29.005Z,55.31
2019-05-02T21:57:33.037Z,55.80
2019-05-02T22:02:37.457Z,55.56
2019-05-02T22:07:41.751Z,55.42
2019-05-02T22:12:45.875Z,55.92
2019-05-02T22:17:49.880Z,55.83
2019-05-02T22:22:54.009Z,56.27
2019-05-02T22:27:58.029Z,56.14
2019-05-02T22:33:02.776Z,56.16
2019-05-02T22:38:24.110Z,56.13
2019-05-02T22:43:28.337Z,55.95
2019-05-02T22:48:32.401Z,55.95
2019-05-02T22:53:36.672Z,56.59
2019-05-02T22:58:42.130Z,56.59
2019-05-02T23:03:46.361Z,56.50
2019-05-02T23:08:52.400Z,56.50
2019-05-02T23:13:56.285Z,56.32
2019-05-02T23:19:00.354Z,56.20
2019-05-02T23:24:08.820Z,56.20
2019-05-02T23:29:13.771Z,56.43
2019-05-02T23:34:17.917Z,56.43
2019-05-02T23:39:22.111Z,56.76
2019-05-02T23:44:26.148Z,56.66
2019-05-02T23:49:30.162Z,56.84
2019-05-02T23:54:34.537Z,56.68
2019-05-02T23:59:38.567Z,57.09
